Time;durP1;ratioP1;P1;durP2;ratioP2;P2;SDS_P1;SDS_P2;PMS_P1;PMS_P2;Temp;Humidity;BMP_temperature;BMP_pressure;BME280_temperature;BME280_humidity;BME280_pressure;Samples;Min_cycle;Max_cycle;Signal;HPM_P1;HPM_P2
2022/12/04 00:00:40;;;;;;;25.73;13.60;;;;;;;;;;6222069;23;20074;-92
2022/12/04 00:03:06;;;;;;;30.52;15.50;;;;;;;;;;6222112;23;20107;-92
2022/12/04 00:05:32;;;;;;;24.02;13.32;;;;;;;;;;6221406;23;20007;-93
2022/12/04 00:07:59;;;;;;;26.75;14.23;;;;;;;;;;6221119;23;20016;-92
2022/12/04 00:10:25;;;;;;;25.65;13.68;;;;;;;;;;6212889;23;20016;-93
2022/12/04 00:12:51;;;;;;;31.88;16.27;;;;;;;;;;6246782;23;20020;-92
2022/12/04 00:15:17;;;;;;;31.38;15.63;;;;;;;;;;6210959;23;20018;-92
2022/12/04 00:17:46;;;;;;;26.00;14.95;;;;;;;;;;6222127;23;20020;-92
2022/12/04 00:20:12;;;;;;;25.38;13.70;;;;;;;;;;6211354;23;20016;-92
2022/12/04 00:22:38;;;;;;;23.67;13.10;;;;;;;;;;6221252;23;20023;-92
2022/12/04 00:25:05;;;;;;;26.58;13.43;;;;;;;;;;6221082;23;20071;-92
2022/12/04 00:27:31;;;;;;;29.38;15.73;;;;;;;;;;6213782;23;20016;-92
2022/12/04 00:29:57;;;;;;;30.77;14.45;;;;;;;;;;6221341;23;20095;-92
2022/12/04 00:32:23;;;;;;;24.08;14.20;;;;;;;;;;6212264;23;20023;-92
2022/12/04 00:34:52;;;;;;;26.98;14.32;;;;;;;;;;6221102;23;20322;-92
2022/12/04 00:37:18;;;;;;;26.73;13.90;;;;;;;;;;6212534;23;20024;-92
2022/12/04 00:39:44;;;;;;;31.30;15.07;;;;;;;;;;6221322;23;20016;-91
2022/12/04 00:42:10;;;;;;;28.23;13.95;;;;;;;;;;6211347;23;20012;-91
2022/12/04 00:44:36;;;;;;;29.27;13.40;;;;;;;;;;6224179;23;20016;-91
2022/12/04 00:47:02;;;;;;;27.25;15.38;;;;;;;;;;6174895;23;20028;-92
2022/12/04 00:49:28;;;;;;;24.70;12.80;;;;;;;;;;6169856;23;20056;-91
2022/12/04 00:51:54;;;;;;;27.02;13.75;;;;;;;;;;6166909;23;20116;-92
2022/12/04 00:54:20;;;;;;;28.10;13.27;;;;;;;;;;6166212;23;20016;-93
2022/12/04 00:56:46;;;;;;;33.10;14.27;;;;;;;;;;6166221;23;20017;-92
2022/12/04 00:59:12;;;;;;;25.27;13.55;;;;;;;;;;6190781;23;20021;-92
2022/12/04 01:01:39;;;;;;;24.15;13.50;;;;;;;;;;6166203;23;20013;-92
2022/12/04 01:04:05;;;;;;;25.85;13.68;;;;;;;;;;6165920;23;20021;-92
2022/12/04 01:06:32;;;;;;;32.45;14.20;;;;;;;;;;6166052;23;20020;-92
2022/12/04 01:08:59;;;;;;;24.25;13.40;;;;;;;;;;6165939;23;20414;-91
2022/12/04 01:11:25;;;;;;;27.98;13.43;;;;;;;;;;6165908;23;20024;-91
2022/12/04 01:13:51;;;;;;;29.38;14.50;;;;;;;;;;6166561;23;20023;-92
2022/12/04 01:16:22;;;;;;;27.67;14.43;;;;;;;;;;6166694;23;20091;-92
2022/12/04 01:18:49;;;;;;;25.20;14.48;;;;;;;;;;6167048;23;20421;-92
2022/12/04 01:21:15;;;;;;;30.90;15.93;;;;;;;;;;6166967;23;20020;-91
2022/12/04 01:23:41;;;;;;;28.95;15.30;;;;;;;;;;6165866;23;20016;-92
2022/12/04 01:26:07;;;;;;;28.92;15.10;;;;;;;;;;6166737;23;20096;-92
2022/12/04 01:28:33;;;;;;;28.98;14.65;;;;;;;;;;6166054;23;20013;-92
2022/12/04 01:30:59;;;;;;;27.02;14.32;;;;;;;;;;6167025;23;20017;-90
2022/12/04 01:33:26;;;;;;;31.63;15.10;;;;;;;;;;6165582;23;20441;-92
2022/12/04 01:35:53;;;;;;;36.80;15.50;;;;;;;;;;6165545;23;20457;-92
2022/12/04 01:38:19;;;;;;;37.35;17.90;;;;;;;;;;6165404;23;20017;-92
2022/12/04 01:40:45;;;;;;;32.78;15.90;;;;;;;;;;6166301;23;20403;-92
2022/12/04 01:43:12;;;;;;;37.42;15.55;;;;;;;;;;6165318;23;20020;-91
2022/12/04 01:45:38;;;;;;;31.52;15.27;;;;;;;;;;6175414;23;20447;-92
2022/12/04 01:48:15;;;;;;;33.08;16.15;;;;;;;;;;6219900;23;20043;-93
2022/12/04 01:50:42;;;;;;;35.65;17.38;;;;;;;;;;6215258;23;20013;-92
2022/12/04 01:53:08;;;;;;;31.23;15.85;;;;;;;;;;6220160;23;20020;-92
2022/12/04 01:55:34;;;;;;;27.90;15.07;;;;;;;;;;6220315;23;20019;-92
2022/12/04 01:58:01;;;;;;;38.47;18.05;;;;;;;;;;6220372;23;20012;-92
2022/12/04 02:00:27;;;;;;;31.13;16.30;;;;;;;;;;6212744;23;20035;-91
2022/12/04 02:02:53;;;;;;;36.63;17.48;;;;;;;;;;6220234;23;20073;-92
2022/12/04 02:05:20;;;;;;;36.75;17.50;;;;;;;;;;6211820;23;20012;-91
2022/12/04 02:07:48;;;;;;;29.60;14.60;;;;;;;;;;6219847;23;20020;-90
2022/12/04 02:10:16;;;;;;;32.78;15.30;;;;;;;;;;6209021;23;20383;-91
2022/12/04 02:12:56;;;;;;;32.15;16.15;;;;;;;;;;6245052;23;20020;-92
2022/12/04 02:15:24;;;;;;;30.33;16.85;;;;;;;;;;6210767;23;20091;-91
2022/12/04 02:17:57;;;;;;;35.17;16.15;;;;;;;;;;6219969;23;20016;-91
2022/12/04 02:20:38;;;;;;;30.35;16.75;;;;;;;;;;6210874;23;20020;-92
2022/12/04 02:23:19;;;;;;;36.13;17.48;;;;;;;;;;6221286;23;20020;-91
2022/12/04 02:25:45;;;;;;;30.35;17.00;;;;;;;;;;6217683;23;20461;-91
2022/12/04 02:28:11;;;;;;;31.95;17.77;;;;;;;;;;6210701;23;20027;-91
2022/12/04 02:30:39;;;;;;;33.25;17.30;;;;;;;;;;6222902;23;20012;-91
2022/12/04 02:33:11;;;;;;;28.65;15.65;;;;;;;;;;6222592;23;20095;-91
2022/12/04 02:35:44;;;;;;;31.33;15.63;;;;;;;;;;6215955;23;20039;-91
2022/12/04 02:38:16;;;;;;;34.03;18.45;;;;;;;;;;6222036;23;20090;-91
2022/12/04 02:40:48;;;;;;;35.08;15.75;;;;;;;;;;6222465;23;20016;-92
2022/12/04 02:43:17;;;;;;;32.28;18.92;;;;;;;;;;6211661;23;20023;-91
2022/12/04 02:45:45;;;;;;;37.08;18.20;;;;;;;;;;6222033;23;20020;-91
2022/12/04 02:48:14;;;;;;;36.58;18.33;;;;;;;;;;6210259;23;20016;-91
2022/12/04 02:50:40;;;;;;;30.10;15.98;;;;;;;;;;6223005;23;20027;-91
2022/12/04 02:53:10;;;;;;;33.35;17.67;;;;;;;;;;6209525;23;20102;-91
2022/12/04 02:55:42;;;;;;;30.83;15.70;;;;;;;;;;6222035;23;20023;-91
2022/12/04 02:58:11;;;;;;;35.00;17.25;;;;;;;;;;6221979;23;20099;-91
2022/12/04 03:00:38;;;;;;;30.90;15.98;;;;;;;;;;6222073;23;20016;-92
2022/12/04 03:03:10;;;;;;;33.60;15.68;;;;;;;;;;6221883;23;20023;-92
2022/12/04 03:05:43;;;;;;;34.83;16.33;;;;;;;;;;6215949;23;20027;-92
2022/12/04 03:08:15;;;;;;;31.30;17.33;;;;;;;;;;6221854;23;20479;-92
2022/12/04 03:10:45;;;;;;;36.88;17.60;;;;;;;;;;6221765;23;20020;-92
2022/12/04 03:13:17;;;;;;;35.05;17.85;;;;;;;;;;6221833;23;20016;-92
2022/12/04 03:15:56;;;;;;;31.85;17.25;;;;;;;;;;6221914;23;20052;-92
2022/12/04 03:18:25;;;;;;;33.70;17.55;;;;;;;;;;6212647;23;20036;-92
2022/12/04 03:20:54;;;;;;;31.85;16.63;;;;;;;;;;6221701;23;20435;-92
2022/12/04 03:23:26;;;;;;;31.80;16.60;;;;;;;;;;6212162;23;20067;-92
2022/12/04 03:26:01;;;;;;;39.80;19.45;;;;;;;;;;6222374;23;20043;-91
2022/12/04 03:28:32;;;;;;;35.80;16.98;;;;;;;;;;6214999;23;20012;-92
2022/12/04 03:31:02;;;;;;;37.85;18.83;;;;;;;;;;6221573;23;20460;-91
2022/12/04 03:33:31;;;;;;;41.28;21.23;;;;;;;;;;6213713;23;20028;-92
2022/12/04 03:36:06;;;;;;;38.53;19.30;;;;;;;;;;6221733;23;20070;-92
2022/12/04 03:38:38;;;;;;;35.53;18.40;;;;;;;;;;6215890;23;20020;-92
2022/12/04 03:41:04;;;;;;;43.75;19.90;;;;;;;;;;6222399;23;20020;-92
2022/12/04 03:43:51;;;;;;;39.03;19.13;;;;;;;;;;6214131;23;20012;-92
2022/12/04 03:46:33;;;;;;;33.67;19.13;;;;;;;;;;6221280;23;20323;-92
2022/12/04 03:49:09;;;;;;;41.67;20.63;;;;;;;;;;6221300;23;20031;-92
2022/12/04 03:51:37;;;;;;;40.95;20.92;;;;;;;;;;6214950;23;20066;-91
2022/12/04 03:54:07;;;;;;;43.85;21.35;;;;;;;;;;6221817;23;20082;-92
2022/12/04 03:56:36;;;;;;;44.42;20.38;;;;;;;;;;6214649;23;20017;-91
2022/12/04 03:59:08;;;;;;;44.78;21.00;;;;;;;;;;6221503;23;20099;-91
2022/12/04 04:01:38;;;;;;;44.53;21.83;;;;;;;;;;6214730;23;20063;-92
2022/12/04 04:04:06;;;;;;;46.92;22.58;;;;;;;;;;6221223;23;20094;-91
2022/12/04 04:06:46;;;;;;;47.70;24.25;;;;;;;;;;6214289;23;20020;-91
2022/12/04 04:09:18;;;;;;;39.70;20.55;;;;;;;;;;6221163;23;20058;-91
2022/12/04 04:11:48;;;;;;;46.08;21.73;;;;;;;;;;6221719;23;20121;-93
2022/12/04 04:25:36;;;;;;;43.97;23.80;;;;;;;;;;6240667;23;20031;-91
2022/12/04 04:28:02;;;;;;;37.45;20.33;;;;;;;;;;6221119;23;20016;-92
2022/12/04 04:30:29;;;;;;;41.45;21.65;;;;;;;;;;6212926;23;20020;-92
2022/12/04 04:33:02;;;;;;;42.70;21.92;;;;;;;;;;6221080;23;20027;-91
2022/12/04 04:35:28;;;;;;;44.10;22.50;;;;;;;;;;6213251;23;20022;-92
2022/12/04 04:38:03;;;;;;;45.13;22.25;;;;;;;;;;6221089;23;20047;-91
2022/12/04 04:40:43;;;;;;;48.35;22.40;;;;;;;;;;6213348;23;20393;-92
2022/12/04 04:43:16;;;;;;;47.95;22.90;;;;;;;;;;6220931;23;20103;-91
2022/12/04 04:45:53;;;;;;;45.08;23.42;;;;;;;;;;6220331;23;20317;-91
2022/12/04 04:48:24;;;;;;;46.45;21.58;;;;;;;;;;6195647;23;20059;-91
2022/12/04 04:50:51;;;;;;;44.22;21.77;;;;;;;;;;6195817;23;20043;-92
2022/12/04 04:53:20;;;;;;;38.25;19.75;;;;;;;;;;6195821;23;20023;-92
2022/12/04 04:55:46;;;;;;;49.28;24.33;;;;;;;;;;6195801;23;20019;-92
2022/12/04 04:58:14;;;;;;;43.70;22.33;;;;;;;;;;6195812;23;20070;-91
2022/12/04 05:00:46;;;;;;;44.00;22.80;;;;;;;;;;6195710;23;20344;-92
2022/12/04 05:03:12;;;;;;;43.95;22.95;;;;;;;;;;6196807;23;20019;-91
2022/12/04 05:05:38;;;;;;;39.90;18.65;;;;;;;;;;6195598;23;20020;-91
2022/12/04 05:08:05;;;;;;;41.80;21.73;;;;;;;;;;6196941;23;20016;-91
2022/12/04 05:10:31;;;;;;;42.13;23.80;;;;;;;;;;6196421;23;20072;-91
2022/12/04 05:12:57;;;;;;;46.38;23.33;;;;;;;;;;6195788;23;20024;-91
2022/12/04 05:15:23;;;;;;;40.53;20.08;;;;;;;;;;6195329;23;20012;-91
2022/12/04 05:17:49;;;;;;;42.83;20.67;;;;;;;;;;6195851;23;20517;-90
2022/12/04 05:20:15;;;;;;;44.92;20.98;;;;;;;;;;6195356;23;20322;-91
2022/12/04 05:22:41;;;;;;;46.65;24.27;;;;;;;;;;6195673;23;20050;-91
2022/12/04 05:25:07;;;;;;;45.13;21.60;;;;;;;;;;6195385;23;20457;-91
2022/12/04 05:27:33;;;;;;;43.75;21.85;;;;;;;;;;6195528;23;20027;-91
2022/12/04 05:29:59;;;;;;;46.45;22.35;;;;;;;;;;6195454;23;20017;-90
2022/12/04 05:32:26;;;;;;;46.53;22.02;;;;;;;;;;6195120;23;20022;-91
2022/12/04 05:34:53;;;;;;;59.33;26.65;;;;;;;;;;6195290;23;20016;-91
2022/12/04 05:37:19;;;;;;;57.20;29.48;;;;;;;;;;6195106;23;20137;-91
2022/12/04 05:39:46;;;;;;;54.40;28.73;;;;;;;;;;6195775;23;20020;-90
2022/12/04 05:42:12;;;;;;;46.83;23.83;;;;;;;;;;6195180;23;20102;-91
2022/12/04 05:44:38;;;;;;;46.60;23.08;;;;;;;;;;6194877;23;20397;-91
2022/12/04 05:47:04;;;;;;;50.17;24.10;;;;;;;;;;6211841;23;20016;-91
2022/12/04 05:49:31;;;;;;;50.60;22.80;;;;;;;;;;6212541;23;20020;-91
2022/12/04 05:51:57;;;;;;;46.00;22.98;;;;;;;;;;6220274;23;20468;-91
2022/12/04 05:54:23;;;;;;;44.33;21.73;;;;;;;;;;6211081;23;20020;-90
2022/12/04 05:56:49;;;;;;;43.60;21.60;;;;;;;;;;6220407;23;20034;-90
2022/12/04 05:59:16;;;;;;;42.40;22.05;;;;;;;;;;6209084;23;20024;-91
2022/12/04 06:01:42;;;;;;;44.17;21.10;;;;;;;;;;6221357;23;20016;-91
2022/12/04 06:04:08;;;;;;;39.13;19.60;;;;;;;;;;6207835;23;20020;-91
2022/12/04 06:06:34;;;;;;;44.92;22.95;;;;;;;;;;6220923;23;20020;-91
2022/12/04 06:09:00;;;;;;;42.75;20.40;;;;;;;;;;6220167;23;20078;-91
2022/12/04 06:11:28;;;;;;;45.13;22.13;;;;;;;;;;6212014;23;20020;-92
2022/12/04 06:13:55;;;;;;;45.75;23.58;;;;;;;;;;6220096;23;20471;-92
2022/12/04 06:16:22;;;;;;;45.88;22.15;;;;;;;;;;6210817;23;20021;-92
2022/12/04 06:18:53;;;;;;;42.92;22.00;;;;;;;;;;6220366;23;20024;-91
2022/12/04 06:21:19;;;;;;;42.53;21.63;;;;;;;;;;6210907;23;20087;-92
2022/12/04 06:23:46;;;;;;;44.50;21.50;;;;;;;;;;6220570;23;20042;-91
2022/12/04 06:26:12;;;;;;;44.95;22.60;;;;;;;;;;6209120;23;20023;-91
2022/12/04 06:28:38;;;;;;;48.47;24.05;;;;;;;;;;6221253;23;20113;-91
2022/12/04 06:31:06;;;;;;;41.40;21.77;;;;;;;;;;6220567;23;20111;-91
2022/12/04 06:33:32;;;;;;;43.70;22.05;;;;;;;;;;6212580;23;20017;-91
2022/12/04 06:36:03;;;;;;;38.75;21.80;;;;;;;;;;6220046;23;20092;-91
2022/12/04 06:38:29;;;;;;;41.63;21.50;;;;;;;;;;6213783;23;20396;-92
2022/12/04 06:40:55;;;;;;;41.25;20.67;;;;;;;;;;6220397;23;20012;-92
2022/12/04 06:43:22;;;;;;;47.05;23.00;;;;;;;;;;6211680;23;20034;-91
2022/12/04 06:45:48;;;;;;;48.17;21.45;;;;;;;;;;6219758;23;20492;-91
2022/12/04 06:48:14;;;;;;;43.20;21.67;;;;;;;;;;6210857;23;20043;-91
2022/12/04 06:50:40;;;;;;;42.42;22.95;;;;;;;;;;6245301;23;20023;-91
2022/12/04 06:53:07;;;;;;;47.28;23.13;;;;;;;;;;6208974;23;20099;-92
2022/12/04 06:55:33;;;;;;;42.75;21.90;;;;;;;;;;6219667;23;20457;-90
2022/12/04 06:57:59;;;;;;;45.15;21.98;;;;;;;;;;6220921;23;20065;-91
2022/12/04 07:00:25;;;;;;;47.60;22.50;;;;;;;;;;6212322;23;20034;-91
2022/12/04 07:02:51;;;;;;;43.35;21.80;;;;;;;;;;6220309;23;20016;-90
2022/12/04 07:05:19;;;;;;;43.53;22.38;;;;;;;;;;6234738;23;20564;-91
2022/12/04 07:07:45;;;;;;;45.17;22.83;;;;;;;;;;6219632;23;20017;-91
2022/12/04 07:10:11;;;;;;;43.58;23.67;;;;;;;;;;6209608;23;20023;-91
2022/12/04 07:12:37;;;;;;;43.53;22.50;;;;;;;;;;6222442;23;20023;-91
2022/12/04 07:15:04;;;;;;;41.90;22.73;;;;;;;;;;6221292;23;20024;-91
2022/12/04 07:17:30;;;;;;;41.88;21.63;;;;;;;;;;6239086;23;20023;-91
2022/12/04 07:19:56;;;;;;;41.53;20.60;;;;;;;;;;6222094;23;20056;-90
2022/12/04 07:22:22;;;;;;;43.50;21.65;;;;;;;;;;6213523;23;20020;-91
2022/12/04 07:24:48;;;;;;;39.53;19.83;;;;;;;;;;6222169;23;20016;-90
2022/12/04 07:27:14;;;;;;;43.55;22.80;;;;;;;;;;6210606;23;20024;-90
2022/12/04 07:29:41;;;;;;;48.00;22.13;;;;;;;;;;6222174;23;20449;-91
2022/12/04 07:32:07;;;;;;;43.97;22.10;;;;;;;;;;6221162;23;20020;-90
2022/12/04 07:34:34;;;;;;;47.13;22.90;;;;;;;;;;6221507;23;20023;-90
2022/12/04 07:37:00;;;;;;;44.10;21.95;;;;;;;;;;6221057;23;20023;-90
2022/12/04 07:39:27;;;;;;;46.22;22.55;;;;;;;;;;6214116;23;20020;-90
2022/12/04 07:41:53;;;;;;;40.00;21.52;;;;;;;;;;6221382;23;20087;-90
2022/12/04 07:44:19;;;;;;;47.92;23.75;;;;;;;;;;6236478;23;20016;-91
2022/12/04 07:46:45;;;;;;;45.22;23.55;;;;;;;;;;6220922;23;20016;-90
2022/12/04 07:49:12;;;;;;;40.13;20.20;;;;;;;;;;6210220;23;20024;-90
2022/12/04 07:51:38;;;;;;;47.28;22.42;;;;;;;;;;6221885;23;20020;-91
2022/12/04 07:54:04;;;;;;;44.50;22.33;;;;;;;;;;6222059;23;20016;-90
2022/12/04 07:56:31;;;;;;;47.03;22.50;;;;;;;;;;6213316;23;20062;-91
2022/12/04 07:58:58;;;;;;;42.90;21.30;;;;;;;;;;6221533;23;20016;-90
2022/12/04 08:01:24;;;;;;;41.95;21.92;;;;;;;;;;6212170;23;20016;-91
2022/12/04 08:03:51;;;;;;;38.45;19.98;;;;;;;;;;6221396;23;20068;-90
2022/12/04 08:06:18;;;;;;;45.38;21.17;;;;;;;;;;6212230;23;20028;-91
2022/12/04 08:08:45;;;;;;;41.55;21.58;;;;;;;;;;6221021;23;20051;-92
2022/12/04 08:11:12;;;;;;;42.17;22.13;;;;;;;;;;6209569;23;20103;-90
2022/12/04 08:13:38;;;;;;;44.95;21.17;;;;;;;;;;6221065;23;20031;-91
2022/12/04 08:16:05;;;;;;;43.90;21.85;;;;;;;;;;6221059;23;20091;-91
2022/12/04 08:18:31;;;;;;;40.33;21.98;;;;;;;;;;6215139;23;20039;-92
2022/12/04 08:21:07;;;;;;;46.78;20.92;;;;;;;;;;6220670;23;20016;-91
2022/12/04 08:23:34;;;;;;;42.75;21.75;;;;;;;;;;6214806;23;20013;-91
2022/12/04 08:26:00;;;;;;;45.38;20.08;;;;;;;;;;6222144;23;20020;-91
2022/12/04 08:28:26;;;;;;;43.38;21.23;;;;;;;;;;6212832;23;20016;-92
2022/12/04 08:30:52;;;;;;;40.75;20.85;;;;;;;;;;6247692;23;20027;-91
2022/12/04 08:33:18;;;;;;;46.22;21.25;;;;;;;;;;6210756;23;20090;-91
2022/12/04 08:35:44;;;;;;;46.20;23.45;;;;;;;;;;6221520;23;20329;-91
2022/12/04 08:38:10;;;;;;;42.63;20.38;;;;;;;;;;6209198;23;20047;-92
2022/12/04 08:40:36;;;;;;;39.63;21.50;;;;;;;;;;6221342;23;20023;-91
2022/12/04 08:43:02;;;;;;;40.95;20.85;;;;;;;;;;6222457;23;20044;-91
2022/12/04 08:45:28;;;;;;;41.95;20.40;;;;;;;;;;6212855;23;20098;-91
2022/12/04 08:47:55;;;;;;;33.38;18.20;;;;;;;;;;6220950;23;20461;-91
2022/12/04 08:50:21;;;;;;;35.30;20.33;;;;;;;;;;6212670;23;20016;-91
2022/12/04 08:52:47;;;;;;;37.40;19.30;;;;;;;;;;6220483;23;20507;-90
2022/12/04 08:55:13;;;;;;;36.78;18.30;;;;;;;;;;6210115;23;20061;-90
2022/12/04 08:57:39;;;;;;;44.63;22.77;;;;;;;;;;6247099;23;20023;-91
2022/12/04 09:00:05;;;;;;;41.45;20.80;;;;;;;;;;6221147;23;20147;-90
2022/12/04 09:02:31;;;;;;;38.55;21.52;;;;;;;;;;6213126;23;20575;-91
2022/12/04 09:04:57;;;;;;;37.97;20.20;;;;;;;;;;6220629;23;20523;-90
2022/12/04 09:07:23;;;;;;;36.20;19.88;;;;;;;;;;6212793;23;20433;-90
2022/12/04 09:09:49;;;;;;;41.00;19.85;;;;;;;;;;6220271;23;20461;-90
2022/12/04 09:12:15;;;;;;;37.20;18.85;;;;;;;;;;6209711;23;20012;-91
2022/12/04 09:14:41;;;;;;;38.35;20.15;;;;;;;;;;6220485;23;20021;-90
2022/12/04 09:17:07;;;;;;;42.92;19.92;;;;;;;;;;6208072;23;20057;-90
2022/12/04 09:19:34;;;;;;;34.20;17.48;;;;;;;;;;6220322;23;20024;-91
2022/12/04 09:22:00;;;;;;;43.35;22.48;;;;;;;;;;6220114;23;20052;-90
2022/12/04 09:24:28;;;;;;;35.50;19.17;;;;;;;;;;6212254;23;20073;-90
2022/12/04 09:26:54;;;;;;;36.28;19.33;;;;;;;;;;6220670;23;20094;-90
2022/12/04 09:29:21;;;;;;;38.50;20.70;;;;;;;;;;6210803;23;20095;-91
2022/12/04 09:31:47;;;;;;;41.53;19.77;;;;;;;;;;6220729;23;20012;-91
2022/12/04 09:34:13;;;;;;;38.38;18.70;;;;;;;;;;6209034;23;20020;-90
2022/12/04 09:36:39;;;;;;;34.10;18.80;;;;;;;;;;6220016;23;20023;-90
2022/12/04 09:39:05;;;;;;;36.70;20.35;;;;;;;;;;6221317;23;20055;-90
2022/12/04 09:41:31;;;;;;;39.88;20.08;;;;;;;;;;6214754;23;20062;-91
2022/12/04 09:43:57;;;;;;;42.50;20.67;;;;;;;;;;6227691;23;20048;-91
2022/12/04 09:46:26;;;;;;;38.70;20.85;;;;;;;;;;6217053;23;20020;-91
2022/12/04 09:48:53;;;;;;;34.40;18.23;;;;;;;;;;6225890;23;20020;-91
2022/12/04 09:51:21;;;;;;;34.78;18.10;;;;;;;;;;6213834;23;20024;-91
2022/12/04 09:53:51;;;;;;;35.55;18.92;;;;;;;;;;6220612;23;20430;-92
2022/12/04 09:56:18;;;;;;;33.22;18.65;;;;;;;;;;6211908;23;20349;-91
2022/12/04 09:59:04;;;;;;;38.40;19.25;;;;;;;;;;6221930;23;20318;-91
2022/12/04 10:01:34;;;;;;;34.75;16.83;;;;;;;;;;6213101;23;20020;-91
2022/12/04 10:04:00;;;;;;;32.72;17.88;;;;;;;;;;6220217;23;20024;-92
2022/12/04 10:06:34;;;;;;;36.03;19.50;;;;;;;;;;6212122;23;20012;-92
2022/12/04 10:09:01;;;;;;;;;;;1.90;99.90;;;;;;6220689;23;20323;-92
2022/12/04 10:11:27;;;;;;;33.05;17.10;;;;;;;;;;6212837;23;19920;-92
2022/12/04 10:14:04;;;;;;;31.85;15.98;;;;;;;;;;6220084;23;20026;-91
2022/12/04 10:16:43;;;;;;;33.92;16.17;;;;;;;;;;6212722;23;20449;-92
2022/12/04 10:19:24;;;;;;;28.85;16.08;;;;;;;;;;6220149;23;20016;-91
2022/12/04 10:21:57;;;;;;;28.00;14.77;;;;;;;;;;6220754;23;20039;-92
2022/12/04 10:24:31;;;;;;;24.88;14.48;;;;;;;;;;6211313;23;20012;-90
2022/12/04 10:26:59;;;;;;;22.95;13.70;;;;;;;;;;6220871;23;20448;-92
2022/12/04 10:29:32;;;;;;;31.10;15.70;;;;;;;;;;6211728;23;20019;-92
2022/12/04 10:32:14;;;;;;;25.17;14.25;;;;;;;;;;6220013;23;20174;-91
2022/12/04 10:34:41;;;;;;;27.80;15.57;;;;;;;;;;6214843;23;20052;-91
2022/12/04 10:37:11;;;;;;;31.45;15.63;;;;;;;;;;6207571;23;20016;-91
2022/12/04 10:39:41;;;;;;;25.70;14.55;;;;;;;;;;6220019;23;20094;-92
2022/12/04 10:42:15;;;;;;;27.67;15.77;;;;;;;;;;6208329;23;20333;-92
2022/12/04 10:44:41;;;;;;;31.13;17.40;;;;;;;;;;6220638;23;20035;-92
2022/12/04 10:47:09;;;;;;;27.88;15.95;;;;;;;;;;6174758;23;20012;-90
2022/12/04 10:49:36;;;;;;;25.13;14.85;;;;;;;;;;6166938;23;20032;-90
2022/12/04 10:52:03;;;;;;;27.90;14.98;;;;;;;;;;6166803;23;20013;-91
2022/12/04 10:54:43;;;;;;;29.20;13.70;;;;;;;;;;6167996;23;20079;-91
2022/12/04 10:57:10;;;;;;;27.60;14.48;;;;;;;;;;6166642;23;20020;-91
2022/12/04 10:59:55;;;;;;;28.35;14.65;;;;;;;;;;6166839;23;20012;-90
2022/12/04 11:02:24;;;;;;;22.95;12.82;;;;;;;;;;6166616;23;20102;-91
2022/12/04 11:04:58;;;;;;;25.48;13.95;;;;;;;;;;6166488;23;20021;-91
2022/12/04 11:07:28;;;;;;;21.35;13.00;;;;;;;;;;6166690;23;20056;-90
2022/12/04 11:10:06;;;;;;;21.02;12.27;;;;;;;;;;6166765;23;20021;-90
2022/12/04 11:12:33;;;;;;;17.83;10.02;;;;;;;;;;6166071;23;20016;-91
2022/12/04 11:15:11;;;;;;;17.17;10.48;;;;;;;;;;6166266;23;20032;-90
2022/12/04 11:17:37;;;;;;;20.15;9.88;;;;;;;;;;6166190;23;20013;-90
2022/12/04 11:20:08;;;;;;;16.00;9.77;;;;;;;;;;6166300;23;20017;-90
2022/12/04 11:22:46;;;;;;;18.83;9.90;;;;;;;;;;6166366;23;20016;-90
2022/12/04 11:25:15;;;;;;;17.30;10.43;;;;;;;;;;6166420;23;20103;-90
2022/12/04 11:27:45;;;;;;;16.60;10.25;;;;;;;;;;6166545;23;20024;-91
2022/12/04 11:30:13;;;;;;;15.57;10.32;;;;;;;;;;6166327;23;20012;-91
2022/12/04 11:32:40;;;;;;;18.88;9.98;;;;;;;;;;6166007;23;20016;-91
2022/12/04 11:35:16;;;;;;;18.40;10.00;;;;;;;;;;6154186;23;20027;-91
2022/12/04 11:37:51;;;;;;;17.10;11.23;;;;;;;;;;6166212;23;20051;-91
2022/12/04 11:40:17;;;;;;;19.25;11.85;;;;;;;;;;6166217;23;20095;-91
2022/12/04 11:42:44;;;;;;;18.15;10.45;;;;;;;;;;6165974;23;20015;-91
2022/12/04 11:45:20;;;;;;;18.15;10.90;;;;;;;;;;6166328;23;20039;-91
2022/12/04 11:47:54;;;;;;;18.58;10.75;;;;;;;;;;6164480;23;20022;-90
2022/12/04 11:50:30;;;;;;;20.00;11.33;;;;;;;;;;6164261;23;20134;-91
2022/12/04 11:53:09;;;;;;;17.50;10.00;;;;;;;;;;6164403;23;20303;-91
2022/12/04 11:55:50;;;;;;;19.98;10.48;;;;;;;;;;6163672;23;20020;-90
2022/12/04 11:58:30;;;;;;;17.45;9.98;;;;;;;;;;6165170;23;20019;-91
2022/12/04 12:01:13;;;;;;;18.60;10.30;;;;;;;;;;6164676;23;20017;-90
2022/12/04 12:03:58;;;;;;;17.42;9.30;;;;;;;;;;6164160;23;20074;-90
2022/12/04 12:06:31;;;;;;;24.33;10.38;;;;;;;;;;6164011;23;20056;-91
2022/12/04 12:09:16;;;;;;;17.85;9.75;;;;;;;;;;6164220;23;20017;-91
2022/12/04 12:12:05;;;;;;;19.70;10.93;;;;;;;;;;6165760;23;20087;-91
2022/12/04 12:14:34;;;;;;;21.60;11.70;;;;;;;;;;6018027;23;20054;-91
2022/12/04 12:17:06;;;;;;;20.75;10.98;;;;;;;;;;6018712;23;20070;-91
2022/12/04 12:19:45;;;;;;;20.88;12.13;;;;;;;;;;6018266;23;20054;-91
2022/12/04 12:22:20;;;;;;;21.80;12.25;;;;;;;;;;6019316;23;20014;-91
2022/12/04 12:24:58;;;;;;;20.95;11.93;;;;;;;;;;6018120;23;20027;-91
2022/12/04 12:27:42;;;;;;;20.83;12.30;;;;;;;;;;6018525;23;20046;-90
2022/12/04 12:30:09;;;;;;;22.05;12.43;;;;;;;;;;6018292;23;20050;-91
2022/12/04 12:32:44;;;;;;;19.33;10.65;;;;;;;;;;6018467;23;20078;-91
2022/12/04 12:35:25;;;;;;;21.55;12.77;;;;;;;;;;6018482;23;20019;-91
2022/12/04 12:37:59;;;;;;;19.55;10.98;;;;;;;;;;6021788;23;20086;-91
2022/12/04 12:40:27;;;;;;;22.55;12.60;;;;;;;;;;6020740;23;20449;-90
2022/12/04 12:42:56;;;;;;;22.98;12.32;;;;;;;;;;6018569;23;20037;-91
2022/12/04 12:45:43;;;;;;;18.45;11.88;;;;;;;;;;5965614;23;1258294;-92
2022/12/04 12:48:15;;;;;;;23.08;12.50;;;;;;;;;;6029353;23;20057;-91
2022/12/04 12:50:44;;;;;;;21.42;11.60;;;;;;;;;;6093001;23;20012;-93
2022/12/04 12:53:12;;;;;;;22.60;12.98;;;;;;;;;;6209625;23;20012;-91
2022/12/04 12:55:50;;;;;;;22.88;12.80;;;;;;;;;;6221766;23;20051;-91
2022/12/04 12:58:22;;;;;;;21.35;11.95;;;;;;;;;;6222007;23;20012;-91
2022/12/04 13:01:05;;;;;;;21.17;11.88;;;;;;;;;;6220713;23;20028;-91
2022/12/04 13:03:34;;;;;;;24.17;13.25;;;;;;;;;;6214228;23;20016;-91
2022/12/04 13:06:04;;;;;;;24.55;12.88;;;;;;;;;;6246536;23;20012;-91
2022/12/04 13:08:36;;;;;;;21.58;12.65;;;;;;;;;;6213135;23;20027;-91
2022/12/04 13:11:07;;;;;;;24.55;13.15;;;;;;;;;;6220408;23;20074;-91
2022/12/04 13:13:35;;;;;;;24.95;12.38;;;;;;;;;;6213305;23;20020;-93
2022/12/04 13:16:17;;;;;;;23.40;12.98;;;;;;;;;;6220800;23;20402;-91
2022/12/04 13:18:54;;;;;;;24.35;13.57;;;;;;;;;;6215802;23;20012;-91
2022/12/04 13:21:39;;;;;;;27.63;13.30;;;;;;;;;;6210809;23;20539;-91
2022/12/04 13:24:24;;;;;;;21.73;13.25;;;;;;;;;;6220431;23;20384;-92
2022/12/04 13:26:55;;;;;;;20.55;12.50;;;;;;;;;;6216932;23;20016;-91
2022/12/04 13:29:24;;;;;;;21.45;11.77;;;;;;;;;;6212448;23;20023;-92
2022/12/04 13:32:05;;;;;;;27.90;13.43;;;;;;;;;;6220525;23;20027;-91
2022/12/04 13:34:37;;;;;;;24.73;13.20;;;;;;;;;;6213151;23;20020;-90
2022/12/04 13:37:21;;;;;;;24.90;12.63;;;;;;;;;;6220839;23;20066;-91
2022/12/04 13:40:22;;;;;;;25.35;13.27;;;;;;;;;;6216040;23;20016;-91
2022/12/04 13:42:48;;;;;;;24.50;12.90;;;;;;;;;;6216007;23;20039;-91
2022/12/04 13:45:25;;;;;;;24.55;13.80;;;;;;;;;;6209188;23;20020;-91
2022/12/04 13:47:59;;;;;;;23.30;12.93;;;;;;;;;;6221291;23;20034;-90
2022/12/04 13:50:27;;;;;;;20.13;11.82;;;;;;;;;;6211681;23;20020;-91
2022/12/04 13:52:53;;;;;;;21.77;12.98;;;;;;;;;;6220802;23;20012;-90
2022/12/04 13:55:22;;;;;;;24.50;13.00;;;;;;;;;;6210307;23;20016;-91
2022/12/04 13:57:52;;;;;;;27.58;13.00;;;;;;;;;;6219784;23;20349;-91
2022/12/04 14:00:30;;;;;;;24.52;13.00;;;;;;;;;;6209947;23;20465;-91
2022/12/04 14:03:01;;;;;;;27.45;13.48;;;;;;;;;;6219944;23;20009;-90
2022/12/04 14:05:29;;;;;;;26.95;13.52;;;;;;;;;;6211977;23;20496;-91
2022/12/04 14:08:04;;;;;;;23.27;13.63;;;;;;;;;;6219872;23;20016;-90
2022/12/04 14:10:33;;;;;;;24.73;11.77;;;;;;;;;;6212905;23;20021;-90
2022/12/04 14:13:05;;;;;;;32.90;14.60;;;;;;;;;;6219717;23;20094;-90
2022/12/04 14:15:35;;;;;;;28.90;15.38;;;;;;;;;;6212996;23;20058;-90
2022/12/04 14:18:24;;;;;;;26.83;14.40;;;;;;;;;;6220187;23;20012;-90
2022/12/04 14:20:57;;;;;;;24.70;13.98;;;;;;;;;;6215931;23;20016;-90
2022/12/04 14:23:25;;;;;;;25.83;12.95;;;;;;;;;;6210873;23;20487;-90
2022/12/04 14:26:04;;;;;;;23.08;13.50;;;;;;;;;;6219710;23;20114;-90
2022/12/04 14:28:30;;;;;;;23.90;12.70;;;;;;;;;;6212517;23;20012;-90
2022/12/04 14:31:13;;;;;;;26.52;14.32;;;;;;;;;;6220187;23;20050;-92
2022/12/04 14:33:59;;;;;;;23.30;12.73;;;;;;;;;;6214302;23;20016;-91
2022/12/04 14:36:30;;;;;;;29.45;14.73;;;;;;;;;;6219845;23;20118;-92
2022/12/04 14:39:36;;;;;;;25.00;14.32;;;3.10;99.90;;;;;;6220456;23;20035;-91
2022/12/04 14:42:06;;;;;;;30.35;16.40;;;;;;;;;;6219635;23;20074;-91